Time;durP1;ratioP1;P1;durP2;ratioP2;P2;SDS_P1;SDS_P2;PMS_P1;PMS_P2;Temp;Humidity;BMP_temperature;BMP_pressure;BME280_temperature;BME280_humidity;BME280_pressure;Samples;Min_cycle;Max_cycle;Signal;HPM_P1;HPM_P2
2022/04/28 00:00:50;;;;;;;13.00;9.43;;;8.60;89.20;;;;;;2616096;54;21429;-80
2022/04/28 00:06:57;;;;;;;11.60;8.67;;;8.60;90.90;;;;;;2615655;54;20495;-80
2022/04/28 00:13:06;;;;;;;9.10;8.20;;;8.40;93.50;;;;;;2616456;54;20658;-80
2022/04/28 00:19:13;;;;;;;10.00;7.93;;;8.40;95.00;;;;;;2615968;54;20460;-81
2022/04/28 00:32:34;;;;;;;10.37;8.40;;;8.30;99.70;;;;;;2615253;54;20971;-81
2022/04/28 00:38:40;;;;;;;10.80;8.77;;;8.20;99.90;;;;;;2615216;54;20552;-80
2022/04/28 00:44:46;;;;;;;10.43;8.27;;;8.10;99.90;;;;;;2614410;54;20431;-79
2022/04/28 00:50:56;;;;;;;12.87;8.90;;;8.00;99.90;;;;;;2614827;54;20179;-79
2022/04/28 00:57:03;;;;;;;13.20;8.67;;;8.00;99.90;;;;;;2615626;54;20387;-80
2022/04/28 01:03:11;;;;;;;15.20;8.90;;;7.80;99.90;;;;;;2616754;54;20382;-79
2022/04/28 01:09:18;;;;;;;14.73;10.37;;;7.90;99.90;;;;;;2616897;54;20366;-78
2022/04/28 01:15:25;;;;;;;10.37;8.67;;;7.80;99.90;;;;;;2616580;39;20807;-79
2022/04/28 01:21:33;;;;;;;11.13;9.40;;;7.60;99.90;;;;;;2615937;39;20462;-80
2022/04/28 01:31:36;;;;;;;14.67;9.70;;;7.50;99.90;;;;;;2614462;54;20422;-80
2022/04/28 01:37:28;;;;;;;12.60;10.10;;;7.50;99.90;;;;;;2615758;54;20493;-79
2022/04/28 01:43:17;;;;;;;10.63;9.20;;;7.40;99.90;;;;;;2614757;47;20512;-78
2022/04/28 01:49:25;;;;;;;13.40;10.07;;;7.20;99.90;;;;;;2614970;54;20541;-81
2022/04/28 02:03:19;;;;;;;13.43;10.37;;;6.90;99.90;;;;;;2614341;54;20417;-81
2022/04/28 02:13:41;;;;;;;15.43;10.57;;;6.80;99.90;;;;;;2616416;54;20556;-81
2022/04/28 02:20:20;;;;;;;14.27;10.67;;;6.70;99.90;;;;;;2615106;54;20402;-81
2022/04/28 02:22:48;;;;;;;17.33;11.33;;;6.70;99.90;;;;;;2614566;47;20453;-81
2022/04/28 02:28:36;;;;;;;24.37;11.57;;;6.70;99.90;;;;;;2615573;54;20690;-81
2022/04/28 02:34:23;;;;;;;20.73;11.00;;;6.70;99.90;;;;;;2617136;46;20223;-80
2022/04/28 02:40:16;;;;;;;13.27;10.70;;;6.70;99.90;;;;;;2616426;47;20415;-79
2022/04/28 02:46:31;;;;;;;14.17;10.53;;;6.70;99.90;;;;;;2618033;47;20400;-79
2022/04/28 02:59:45;;;;;;;18.13;11.83;;;6.60;99.90;;;;;;2616761;46;21027;-80
2022/04/28 03:10:46;;;;;;;23.00;13.80;;;6.50;99.90;;;;;;2616884;54;20148;-80
2022/04/28 03:15:39;;;;;;;18.47;12.23;;;6.40;99.90;;;;;;2615684;54;20380;-81
2022/04/28 03:25:08;;;;;;;17.90;10.77;;;6.40;99.90;;;;;;2616582;39;20946;-79
2022/04/28 03:30:56;;;;;;;24.87;11.90;;;6.20;99.90;;;;;;2616469;51;20473;-81
2022/04/28 03:36:51;;;;;;;18.33;12.60;;;6.20;99.90;;;;;;2616386;47;20520;-80
2022/04/28 03:53:49;;;;;;;22.73;12.57;;;5.90;99.90;;;;;;2616268;54;20947;-80
2022/04/28 04:03:37;;;;;;;19.87;12.60;;;5.90;99.90;;;;;;2616275;46;20544;-80
2022/04/28 04:09:47;;;;;;;20.47;13.40;;;6.00;99.90;;;;;;2617251;54;20144;-80
2022/04/28 04:42:19;;;;;;;20.10;15.23;;;5.80;99.90;;;;;;2616789;54;20473;-79
2022/04/28 04:48:25;;;;;;;27.23;13.73;;;5.80;99.90;;;;;;2616410;54;20447;-81
2022/04/28 04:54:33;;;;;;;18.73;14.70;;;5.90;99.90;;;;;;2617029;54;20399;-80
2022/04/28 05:00:39;;;;;;;30.23;15.20;;;6.00;99.90;;;;;;2617045;54;20147;-80
2022/04/28 05:07:06;;;;;;;21.17;13.50;;;6.30;99.90;;;;;;2615796;54;20584;-80
2022/04/28 05:13:13;;;;;;;22.03;15.00;;;6.40;99.90;;;;;;2615250;54;20458;-77
2022/04/28 05:19:39;;;;;;;25.67;14.57;;;6.60;99.90;;;;;;2614929;54;20411;-78
2022/04/28 05:26:03;;;;;;;24.70;16.40;;;6.90;99.90;;;;;;2612646;54;20427;-79
2022/04/28 05:28:48;;;;;;;21.10;15.40;;;7.00;99.90;;;;;;2613785;54;20430;-81
2022/04/28 05:53:21;;;;;;;26.70;16.63;;;9.70;99.90;;;;;;2614436;54;21109;-81
2022/04/28 05:59:34;;;;;;;20.63;15.07;;;10.10;99.90;;;;;;2615271;54;20409;-80
2022/04/28 06:39:03;;;;;;;17.47;12.70;;;12.30;67.60;;;;;;2613987;54;20426;-80
2022/04/28 06:45:13;;;;;;;22.40;15.40;;;12.90;57.00;;;;;;2615902;54;20414;-77
2022/04/28 06:51:37;;;;;;;17.87;13.00;;;13.40;51.80;;;;;;2612307;54;20463;-78
2022/04/28 06:58:13;;;;;;;21.10;13.30;;;13.30;49.70;;;;;;2616207;54;20427;-79
2022/04/28 07:07:43;;;;;;;14.07;12.57;;;13.90;46.40;;;;;;2612262;47;20399;-79
2022/04/28 07:13:31;;;;;;;13.63;12.17;;;14.30;39.10;;;;;;2613509;54;20155;-76
2022/04/28 07:19:57;;;;;;;20.20;14.30;;;14.50;34.40;;;;;;2615856;54;20538;-79
2022/04/28 07:29:50;;;;;;;19.87;13.30;;;15.10;33.40;;;;;;2614666;54;20492;-78
2022/04/28 07:32:36;;;;;;;15.07;11.37;;;15.10;29.10;;;;;;2613286;47;20381;-79
2022/04/28 07:39:00;;;;;;;16.60;11.97;;;15.70;23.10;;;;;;2615253;54;20404;-79
2022/04/28 08:03:18;;;;;;;15.00;12.40;;;16.90;9.00;;;;;;2615174;54;20428;-79
2022/04/28 08:09:31;;;;;;;17.90;12.20;;;16.70;8.80;;;;;;2613580;54;20440;-78
2022/04/28 08:15:38;;;;;;;14.63;12.93;;;17.10;8.30;;;;;;2614459;54;20513;-78
2022/04/28 08:21:47;;;;;;;15.50;13.03;;;17.20;5.70;;;;;;2615858;54;20409;-79
2022/04/28 08:27:53;;;;;;;15.00;12.13;;;17.60;3.10;;;;;;2614681;39;21091;-79
2022/04/28 08:37:41;;;;;;;17.20;14.27;;;17.60;2.30;;;;;;2613582;54;20479;-80
2022/04/28 08:43:48;;;;;;;12.67;11.43;;;17.90;2.00;;;;;;2613574;54;20179;-79
2022/04/28 08:49:38;;;;;;;21.83;13.53;;;18.30;1.00;;;;;;2614948;31;20895;-79
2022/04/28 08:55:48;;;;;;;15.13;13.60;;;18.70;1.00;;;;;;2612928;54;20434;-78
2022/04/28 09:01:37;;;;;;;16.80;14.63;;;18.50;1.00;;;;;;2615440;54;20430;-78
2022/04/28 09:11:45;;;;;;;22.40;15.23;;;19.20;1.00;;;;;;2615735;54;20378;-80
2022/04/28 09:18:09;;;;;;;16.80;14.50;;;19.50;1.00;;;;;;2614351;54;20430;-78
2022/04/28 09:24:16;;;;;;;17.77;15.17;;;19.10;1.00;;;;;;2669643;36;20218;-79
2022/04/28 09:30:26;;;;;;;15.60;14.00;;;19.50;1.00;;;;;;2614969;54;20417;-78
2022/04/28 09:33:18;;;;;;;17.30;14.30;;;19.40;1.00;;;;;;2615688;47;21095;-77
2022/04/28 09:45:50;;;;;;;20.73;14.83;;;20.10;1.00;;;;;;2615673;54;20926;-79
2022/04/28 09:52:02;;;;;;;15.80;13.37;;;20.00;1.00;;;;;;2613581;47;20458;-79
2022/04/28 10:02:23;;;;;;;15.63;13.60;;;20.70;1.00;;;;;;2614420;54;20410;-78
2022/04/28 10:11:55;;;;;;;14.93;13.43;;;20.60;1.00;;;;;;2614199;54;20951;-79
2022/04/28 10:17:55;;;;;;;14.83;13.20;;;21.00;1.00;;;;;;2613871;39;20937;-78
2022/04/28 10:34:19;;;;;;;14.87;13.47;;;20.90;1.00;;;;;;2615986;39;20540;-79
2022/04/28 10:36:59;;;;;;;15.20;13.70;;;20.40;1.00;;;;;;2615688;54;20408;-80
2022/04/28 10:42:57;;;;;;;16.07;14.57;;;20.70;1.00;;;;;;2615849;39;20956;-79
2022/04/28 10:48:46;;;;;;;14.57;13.17;;;21.00;1.00;;;;;;2616357;54;20395;-76
2022/04/28 11:05:35;;;;;;;13.80;12.47;;;21.10;1.00;;;;;;2615378;54;20423;-76
2022/04/28 11:11:43;;;;;;;15.30;13.70;;;21.50;1.00;;;;;;2614553;54;20419;-78
2022/04/28 11:17:49;;;;;;;14.83;13.23;;;22.10;1.00;;;;;;2614214;54;20386;-79
2022/04/28 11:23:57;;;;;;;15.73;14.13;;;22.40;1.00;;;;;;2615099;54;20164;-79
2022/04/28 11:30:26;;;;;;;16.13;13.87;;;22.10;1.00;;;;;;2614888;54;20983;-80
2022/04/28 11:36:32;;;;;;;23.23;14.53;;;21.90;1.00;;;;;;2614707;54;21003;-79
2022/04/28 11:46:06;;;;;;;15.77;14.00;;;21.60;1.00;;;;;;2614721;46;20435;-80
2022/04/28 11:51:54;;;;;;;15.60;11.60;;;22.00;1.00;;;;;;2615181;47;20529;-79
2022/04/28 11:57:42;;;;;;;16.50;13.70;;;22.60;1.00;;;;;;2615714;54;20423;-80
2022/04/28 12:07:20;;;;;;;13.43;12.13;;;22.30;1.00;;;;;;2615117;54;20495;-80
2022/04/28 12:23:33;;;;;;;14.00;12.67;;;22.90;1.00;;;;;;2617943;39;20836;-80
2022/04/28 12:29:21;;;;;;;14.37;12.93;;;22.10;1.00;;;;;;2617434;47;20439;-80
2022/04/28 12:35:10;;;;;;;13.70;12.30;;;21.40;1.00;;;;;;2617184;54;20424;-80
2022/04/28 12:38:14;;;;;;;14.40;13.00;;;21.30;1.00;;;;;;2617474;39;20789;-81
2022/04/28 12:40:42;;;;;;;15.97;12.67;;;21.80;1.00;;;;;;2616038;47;20534;-80
2022/04/28 12:46:35;;;;;;;15.40;13.80;;;22.10;1.00;;;;;;2617924;39;20813;-81
2022/04/28 13:28:14;;;;;;;16.37;13.60;;;22.10;1.00;;;;;;2615738;54;20485;-81
2022/04/28 13:48:34;;;;;;;13.67;12.13;;;22.40;1.00;;;;;;2615224;54;20448;-79
2022/04/28 13:54:40;;;;;;;14.70;13.17;;;22.80;1.00;;;;;;2615660;54;20382;-81
2022/04/28 14:00:50;;;;;;;14.53;13.23;;;22.60;1.00;;;;;;2614735;54;20201;-82
2022/04/28 14:06:56;;;;;;;13.30;12.10;;;22.70;1.00;;;;;;2615798;54;20464;-81
2022/04/28 14:13:03;;;;;;;14.90;12.60;;;22.80;1.00;;;;;;2616530;54;20188;-82
2022/04/28 14:19:09;;;;;;;13.20;12.07;;;22.60;1.00;;;;;;2616957;54;20146;-80
2022/04/28 14:25:16;;;;;;;13.90;12.60;;;22.60;1.00;;;;;;2617372;54;20282;-81
2022/04/28 14:31:23;;;;;;;15.53;12.33;;;22.00;1.00;;;;;;2617909;54;20525;-78
2022/04/28 14:37:29;;;;;;;12.13;11.10;;;21.40;1.00;;;;;;2618395;54;20146;-81
2022/04/28 14:43:37;;;;;;;13.83;12.53;;;21.40;1.00;;;;;;2617608;54;20298;-80
2022/04/28 14:46:40;;;;;;;13.63;12.23;;;21.50;1.00;;;;;;2617186;54;20406;-81
2022/04/28 14:52:47;;;;;;;16.07;10.73;;;21.10;1.00;;;;;;2617744;54;20452;-83
2022/04/28 14:58:37;;;;;;;17.10;12.17;;;21.40;1.00;;;;;;2616160;54;20430;-82
2022/04/28 15:04:26;;;;;;;15.50;11.33;;;21.30;1.00;;;;;;2616938;54;20465;-80
2022/04/28 15:10:14;;;;;;;13.23;10.60;;;21.10;1.00;;;;;;2616753;54;20425;-84
2022/04/28 15:16:03;;;;;;;12.90;11.63;;;20.80;1.00;;;;;;2614571;54;20473;-81
2022/04/28 15:21:51;;;;;;;11.27;10.17;;;21.20;1.00;;;;;;2614912;54;21609;-82
2022/04/28 15:27:40;;;;;;;12.73;10.60;;;21.20;1.00;;;;;;2616025;54;20235;-82
2022/04/28 15:33:29;;;;;;;10.90;9.87;;;21.60;1.00;;;;;;2615525;47;20468;-79
2022/04/28 15:36:14;;;;;;;18.93;11.90;;;21.40;1.00;;;;;;2615472;54;20419;-82
2022/04/28 15:38:39;;;;;;;19.23;13.20;;;21.30;1.00;;;;;;2616301;54;20165;-82
2022/04/28 15:44:28;;;;;;;13.17;10.60;;;20.50;1.00;;;;;;2614798;51;20273;-81
2022/04/28 16:01:08;;;;;;;20.13;10.27;;;20.70;1.00;;;;;;2615124;54;20393;-80
2022/04/28 16:10:38;;;;;;;9.90;9.00;;;20.70;1.00;;;;;;2614336;39;20809;-80
2022/04/28 16:16:26;;;;;;;11.33;8.60;;;20.80;1.00;;;;;;2615496;47;20504;-82
2022/04/28 16:22:15;;;;;;;10.43;9.43;;;21.00;1.00;;;;;;2615712;54;20148;-82
2022/04/28 16:28:03;;;;;;;15.57;9.63;;;21.30;1.00;;;;;;2616020;54;20753;-81
2022/04/28 16:37:32;;;;;;;11.07;9.97;;;20.30;1.00;;;;;;2616633;54;20448;-79
2022/04/28 16:47:03;;;;;;;10.33;8.83;;;20.00;1.00;;;;;;2616550;54;20414;-80
2022/04/28 16:52:51;;;;;;;11.17;8.10;;;20.10;1.00;;;;;;2616188;47;20421;-81
2022/04/28 16:58:40;;;;;;;10.03;8.93;;;19.80;1.00;;;;;;2616747;54;20430;-82
2022/04/28 17:04:29;;;;;;;10.97;9.30;;;19.30;1.00;;;;;;2616067;47;20410;-81
2022/04/28 17:10:17;;;;;;;17.10;10.03;;;18.60;1.00;;;;;;2616373;47;20424;-80
2022/04/28 17:16:05;;;;;;;10.33;9.00;;;18.00;1.00;;;;;;2615818;54;20398;-83
2022/04/28 17:21:54;;;;;;;8.43;7.63;;;17.70;1.00;;;;;;2617165;54;20143;-82
2022/04/28 17:27:42;;;;;;;17.43;10.47;;;17.40;1.00;;;;;;2617210;54;20412;-82
2022/04/28 17:33:30;;;;;;;13.17;7.87;;;17.30;1.00;;;;;;2615763;39;20879;-82
2022/04/28 17:39:18;;;;;;;9.63;8.70;;;17.00;1.00;;;;;;2617175;54;20200;-81
2022/04/28 17:49:16;;;;;;;12.13;8.00;;;16.80;1.00;;;;;;2615474;54;20402;-80
2022/04/28 18:04:51;;;;;;;14.33;7.77;;;16.10;1.00;;;;;;2614289;54;20392;-83
2022/04/28 18:10:39;;;;;;;9.33;6.73;;;16.20;1.00;;;;;;2615192;54;20391;-82
2022/04/28 18:16:29;;;;;;;7.70;6.90;;;15.90;1.00;;;;;;2615699;54;20431;-82
2022/04/28 18:22:17;;;;;;;8.17;7.37;;;15.80;1.00;;;;;;2616542;31;20829;-82
2022/04/28 18:28:05;;;;;;;10.40;9.13;;;15.60;1.00;;;;;;2616052;54;20191;-85
2022/04/28 18:33:54;;;;;;;9.77;7.03;;;15.40;1.00;;;;;;2616895;54;20422;-84
2022/04/28 18:46:46;;;;;;;14.13;8.03;;;15.10;1.00;;;;;;2616641;54;20483;-83
2022/04/28 18:52:54;;;;;;;12.03;7.63;;;14.90;1.00;;;;;;2616627;54;20230;-83
2022/04/28 18:59:06;;;;;;;10.17;7.03;;;14.60;1.00;;;;;;2617206;54;20371;-82
2022/04/28 19:05:13;;;;;;;11.70;8.00;;;14.50;1.60;;;;;;2618330;39;20779;-83
2022/04/28 19:11:22;;;;;;;8.27;7.47;;;14.20;3.50;;;;;;2617275;54;20154;-83
2022/04/28 19:17:36;;;;;;;11.30;7.60;;;14.20;6.90;;;;;;2617842;39;21170;-82
2022/04/28 19:23:43;;;;;;;13.10;7.37;;;14.00;9.40;;;;;;2616523;54;20398;-80
2022/04/28 19:29:51;;;;;;;7.73;6.57;;;13.70;12.10;;;;;;2617398;54;20150;-82
2022/04/28 19:35:58;;;;;;;8.57;7.77;;;13.60;14.50;;;;;;2616152;54;20429;-83
2022/04/28 19:42:05;;;;;;;17.20;9.07;;;13.40;15.30;;;;;;2618378;54;20697;-80
2022/04/28 19:48:12;;;;;;;13.77;7.90;;;13.30;17.60;;;;;;2617485;54;20375;-83
2022/04/28 19:54:20;;;;;;;11.33;9.53;;;13.00;22.10;;;;;;2617733;54;20185;-82
2022/04/28 20:00:28;;;;;;;16.90;9.30;;;12.90;23.90;;;;;;2616681;54;20453;-81
2022/04/28 20:06:35;;;;;;;10.07;7.83;;;12.80;26.80;;;;;;2616703;54;20159;-78
2022/04/28 20:12:42;;;;;;;11.60;9.00;;;12.70;29.30;;;;;;2617881;54;20154;-83
2022/04/28 20:18:49;;;;;;;11.77;9.10;;;12.60;32.80;;;;;;2617365;54;20424;-84
2022/04/28 20:25:01;;;;;;;8.70;7.90;;;12.40;36.50;;;;;;2618430;54;20419;-82
2022/04/28 20:31:08;;;;;;;13.47;10.10;;;12.30;44.30;;;;;;2616962;54;20432;-82
2022/04/28 20:37:15;;;;;;;20.30;10.70;;;12.20;45.80;;;;;;2616662;54;20399;-82
2022/04/28 20:46:45;;;;;;;15.40;12.30;;;11.90;54.20;;;;;;2615879;54;20480;-80
2022/04/28 20:52:33;;;;;;;15.50;12.43;;;11.90;55.90;;;;;;2616397;54;20427;-82
2022/04/28 20:58:21;;;;;;;16.13;12.40;;;11.80;53.40;;;;;;2616724;47;20194;-83
2022/04/28 21:04:10;;;;;;;12.63;10.30;;;11.70;61.40;;;;;;2617588;54;20644;-83
2022/04/28 21:09:57;;;;;;;14.23;12.63;;;11.50;71.50;;;;;;2617637;54;20396;-84
2022/04/28 21:15:48;;;;;;;13.20;11.90;;;11.60;62.20;;;;;;2615414;47;20179;-82
2022/04/28 21:21:36;;;;;;;16.27;11.13;;;11.40;63.80;;;;;;2615794;54;20423;-83
2022/04/28 21:27:23;;;;;;;16.93;11.77;;;11.40;61.80;;;;;;2615739;54;20149;-80
2022/04/28 21:33:11;;;;;;;15.53;12.60;;;11.40;57.80;;;;;;2615005;54;20676;-79
2022/04/28 21:38:58;;;;;;;15.50;12.00;;;11.40;55.50;;;;;;2614863;54;20828;-79
2022/04/28 22:13:23;;;;;;;15.47;11.90;;;11.20;65.80;;;;;;2615004;54;20994;-79
2022/04/28 22:22:51;;;;;;;16.33;12.40;;;11.10;64.70;;;;;;2615666;54;20418;-78
2022/04/28 22:28:57;;;;;;;16.70;12.57;;;11.20;65.20;;;;;;2616337;54;20728;-79
2022/04/28 22:35:06;;;;;;;15.30;12.30;;;11.20;63.70;;;;;;2617410;54;20173;-80
2022/04/28 22:41:13;;;;;;;16.63;12.23;;;11.20;63.20;;;;;;2616459;54;20418;-79
2022/04/28 22:47:20;;;;;;;16.93;12.07;;;11.20;65.30;;;;;;2617088;54;20177;-78
2022/04/28 23:00:42;;;;;;;18.77;12.37;;;10.90;75.20;;;;;;2614863;54;21221;-79
2022/04/28 23:06:49;;;;;;;15.77;12.33;;;10.90;77.70;;;;;;2615998;54;20638;-79
2022/04/28 23:12:57;;;;;;;18.00;12.80;;;10.80;80.90;;;;;;2615131;54;20416;-79
2022/04/28 23:19:04;;;;;;;22.87;15.10;;;10.70;85.80;;;;;;2632431;36;20492;-79
2022/04/28 23:25:12;;;;;;;15.57;12.97;;;10.70;89.80;;;;;;2616271;54;20930;-78
2022/04/28 23:31:18;;;;;;;14.00;12.47;;;10.70;91.80;;;;;;2617513;54;20397;-79
2022/04/28 23:43:50;;;;;;;16.97;13.47;;;10.50;98.30;;;;;;2614725;54;20414;-78
